createdAt,value
2023-04-15T00:01:11.742Z,99032.63
2023-04-15T00:03:38.774Z,99034.88
2023-04-15T00:06:06.062Z,99026.13
2023-04-15T00:08:33.273Z,99023.63
2023-04-15T00:11:03.148Z,99024.19
2023-04-15T00:13:29.985Z,99029.91
2023-04-15T00:15:56.761Z,99030.31
2023-04-15T00:18:24.321Z,99030.88
2023-04-15T00:20:51.087Z,99030.03
2023-04-15T00:23:18.034Z,99036.19
2023-04-15T00:25:44.949Z,99029.78
2023-04-15T00:28:11.634Z,99033.25
2023-04-15T00:30:38.933Z,99030.34
2023-04-15T00:33:05.865Z,99034.50
2023-04-15T00:35:32.821Z,99031.72
2023-04-15T00:37:59.888Z,99029.75
2023-04-15T00:40:27.754Z,99025.59
2023-04-15T00:42:54.482Z,99020.72
2023-04-15T00:45:21.318Z,99018.22
2023-04-15T00:47:48.295Z,99016.69
2023-04-15T00:50:15.038Z,99019.88
2023-04-15T00:52:41.860Z,99022.13
2023-04-15T00:55:09.806Z,99023.25
2023-04-15T00:57:36.962Z,99019.47
2023-04-15T01:00:05.712Z,99022.28
2023-04-15T01:02:33.327Z,99020.06
2023-04-15T01:05:02.533Z,99025.75
2023-04-15T01:07:29.361Z,99026.47
2023-04-15T01:09:56.065Z,99016.41
2023-04-15T01:12:23.199Z,99018.09
2023-04-15T01:14:50.007Z,99008.91
2023-04-15T01:17:17.736Z,99010.31
2023-04-15T01:19:44.442Z,99012.25
2023-04-15T01:22:11.363Z,99017.53
2023-04-15T01:24:38.543Z,99029.34
2023-04-15T01:27:05.684Z,99036.75
2023-04-15T01:29:35.694Z,99030.34
2023-04-15T01:32:02.386Z,99035.91
2023-04-15T01:34:47.763Z,99032.84
2023-04-15T01:37:33.126Z,99023.66
2023-04-15T01:39:59.778Z,99026.44
2023-04-15T01:42:27.626Z,99023.78
2023-04-15T01:44:55.764Z,99022.25
2023-04-15T01:47:23.805Z,99019.03
2023-04-15T01:49:51.817Z,99026.41
2023-04-15T01:52:19.787Z,99027.00
2023-04-15T01:54:47.802Z,99022.38
2023-04-15T01:57:15.815Z,99019.75
2023-04-15T01:59:43.810Z,99017.13
2023-04-15T02:02:12.546Z,99017.13
2023-04-15T02:04:40.567Z,99019.31
2023-04-15T02:07:08.691Z,99022.91
2023-04-15T02:09:36.815Z,99024.44
2023-04-15T02:12:04.814Z,99021.66
2023-04-15T02:14:32.797Z,99019.75
2023-04-15T02:17:07.240Z,99023.06
2023-04-15T02:19:35.785Z,99019.59
2023-04-15T02:22:04.740Z,99021.25
2023-04-15T02:24:33.361Z,99022.34
2023-04-15T02:27:02.186Z,99020.56
2023-04-15T02:29:32.243Z,99019.59
2023-04-15T02:32:02.149Z,99021.66
2023-04-15T02:34:31.458Z,99024.88
2023-04-15T02:36:59.469Z,99023.44
2023-04-15T02:39:27.610Z,99019.69
2023-04-15T02:41:55.721Z,99021.75
2023-04-15T02:44:24.909Z,99025.38
2023-04-15T02:46:56.744Z,99017.97
2023-04-15T02:49:25.243Z,99012.97
2023-04-15T02:51:53.428Z,99016.31
2023-04-15T02:54:26.061Z,99007.16
2023-04-15T02:56:56.099Z,99008.09
2023-04-15T02:59:24.193Z,99012.59
2023-04-15T03:01:52.449Z,99016.44
2023-04-15T03:04:20.510Z,99010.34
2023-04-15T03:06:48.520Z,99007.69
2023-04-15T03:09:16.654Z,99011.72
2023-04-15T03:11:44.878Z,99003.91
2023-04-15T03:14:12.855Z,99009.16
2023-04-15T03:16:44.342Z,99012.53
2023-04-15T03:19:14.431Z,99007.16
2023-04-15T03:21:44.315Z,99010.88
2023-04-15T03:24:12.351Z,99010.78
2023-04-15T03:26:40.393Z,99005.47
2023-04-15T03:29:14.088Z,99010.56
2023-04-15T03:31:42.511Z,99006.28
2023-04-15T03:34:10.552Z,99007.66
2023-04-15T03:36:38.772Z,99004.97
2023-04-15T03:39:06.692Z,99001.69
2023-04-15T03:41:34.643Z,99002.53
2023-04-15T03:44:02.678Z,99001.00
2023-04-15T03:46:30.712Z,99005.25
2023-04-15T03:48:59.087Z,99005.25
2023-04-15T03:51:27.554Z,98997.88
2023-04-15T03:53:56.044Z,98995.63
2023-04-15T03:56:24.096Z,98992.72
2023-04-15T03:58:52.002Z,98997.28
2023-04-15T04:01:19.908Z,98998.72
2023-04-15T04:03:48.170Z,98991.06
2023-04-15T04:06:16.837Z,98992.44
2023-04-15T04:08:44.800Z,98994.97
2023-04-15T04:11:12.937Z,99003.16
2023-04-15T04:13:41.025Z,99000.31
2023-04-15T04:16:09.000Z,99001.31
2023-04-15T04:18:36.966Z,98994.53
2023-04-15T04:21:05.357Z,98999.34
2023-04-15T04:23:33.346Z,99002.53
2023-04-15T04:26:01.282Z,99014.78
2023-04-15T04:28:29.315Z,99009.06
2023-04-15T04:30:57.246Z,99012.25
2023-04-15T04:33:25.214Z,99016.00
2023-04-15T04:35:53.075Z,99025.31
2023-04-15T04:38:21.066Z,99030.59
2023-04-15T04:40:49.072Z,99023.19
2023-04-15T04:43:17.041Z,99028.28
2023-04-15T04:45:45.026Z,99028.44
2023-04-15T04:48:13.060Z,99029.66
2023-04-15T04:50:41.152Z,99025.94
2023-04-15T04:53:09.077Z,99022.84
2023-04-15T04:55:37.039Z,99030.50
2023-04-15T04:58:04.972Z,99030.38
2023-04-15T05:00:33.020Z,99029.41
2023-04-15T05:03:01.224Z,99027.47
2023-04-15T05:05:29.421Z,99032.28
2023-04-15T05:07:57.383Z,99031.09
2023-04-15T05:10:25.343Z,99033.78
2023-04-15T05:12:53.278Z,99032.69
2023-04-15T05:15:21.463Z,99031.47
2023-04-15T05:17:49.433Z,99040.09
2023-04-15T05:20:17.472Z,99031.06
2023-04-15T05:22:45.382Z,99035.66
2023-04-15T05:25:13.950Z,99035.06
2023-04-15T05:27:42.098Z,99032.25
2023-04-15T05:30:11.626Z,99042.06
2023-04-15T05:32:41.562Z,99035.84
2023-04-15T05:35:09.705Z,99040.75
2023-04-15T05:37:37.644Z,99032.38
2023-04-15T05:40:06.161Z,99039.00
2023-04-15T05:42:35.040Z,99039.69
2023-04-15T05:45:05.453Z,99049.75
2023-04-15T05:47:33.498Z,99037.91
2023-04-15T05:50:01.589Z,99044.31
2023-04-15T05:52:29.521Z,99052.88
2023-04-15T05:54:57.482Z,99039.44
2023-04-15T05:57:25.708Z,99051.22
2023-04-15T05:59:53.774Z,99061.88
2023-04-15T06:02:22.146Z,99055.06
2023-04-15T06:04:50.136Z,99055.06
2023-04-15T06:07:18.150Z,99055.31
2023-04-15T06:09:46.096Z,99055.31
2023-04-15T06:12:14.214Z,99053.59
2023-04-15T06:14:42.185Z,99056.59
2023-04-15T06:17:10.306Z,99057.19
2023-04-15T06:19:38.555Z,99065.75
2023-04-15T06:22:07.280Z,99072.66
2023-04-15T06:24:36.991Z,99067.66
2023-04-15T06:27:04.937Z,99079.19
2023-04-15T06:29:32.862Z,99065.28
2023-04-15T06:32:01.025Z,99072.00
2023-04-15T06:34:28.941Z,99056.22
2023-04-15T06:36:57.458Z,99071.72
2023-04-15T06:39:25.576Z,99061.72
2023-04-15T06:41:53.565Z,99065.09
2023-04-15T06:44:22.907Z,99066.34
2023-04-15T06:46:50.894Z,99068.59
2023-04-15T06:49:18.809Z,99070.28
2023-04-15T06:51:46.817Z,99067.78
2023-04-15T06:54:14.793Z,99066.78
2023-04-15T06:56:42.996Z,99067.22
2023-04-15T06:59:10.909Z,99064.03
2023-04-15T07:01:38.806Z,99068.09
2023-04-15T07:04:06.963Z,99075.47
2023-04-15T07:06:35.688Z,99061.94
2023-04-15T07:09:05.426Z,99069.53
2023-04-15T07:11:33.802Z,99062.16
2023-04-15T07:14:01.750Z,99068.47
2023-04-15T07:16:30.188Z,99070.53
2023-04-15T07:18:58.316Z,99063.03
2023-04-15T07:21:27.542Z,99068.06
2023-04-15T07:23:55.606Z,99064.75
2023-04-15T07:26:23.633Z,99069.13
2023-04-15T07:28:51.559Z,99061.31
2023-04-15T07:31:19.565Z,99067.56
2023-04-15T07:33:47.612Z,99058.69
2023-04-15T07:36:15.544Z,99062.31
2023-04-15T07:38:43.501Z,99061.63
2023-04-15T07:41:12.058Z,99069.41
2023-04-15T07:43:39.987Z,99067.78
2023-04-15T07:46:08.303Z,99070.69
2023-04-15T07:48:56.124Z,99067.91
2023-04-15T07:51:27.246Z,99078.06
2023-04-15T07:53:55.163Z,99069.59
2023-04-15T07:56:23.147Z,99066.25
2023-04-15T07:58:51.537Z,99055.81
2023-04-15T08:01:19.500Z,99059.31
2023-04-15T08:03:48.589Z,99053.19
2023-04-15T08:06:16.811Z,99058.19
2023-04-15T08:08:44.735Z,99063.59
2023-04-15T08:11:13.034Z,99059.69
2023-04-15T08:13:41.046Z,99056.03
2023-04-15T08:16:25.338Z,99046.44
2023-04-15T08:18:55.416Z,99043.59
2023-04-15T08:21:24.505Z,99041.50
2023-04-15T08:23:53.720Z,99043.56
2023-04-15T08:26:22.165Z,99045.22
2023-04-15T08:28:50.385Z,99044.50
2023-04-15T08:31:18.982Z,99035.75
2023-04-15T08:33:46.942Z,99039.06
2023-04-15T08:36:15.012Z,99039.31
2023-04-15T08:38:44.292Z,99030.53
2023-04-15T08:41:18.635Z,99039.03
2023-04-15T08:43:53.636Z,99034.56
2023-04-15T08:46:21.939Z,99044.44
2023-04-15T08:48:50.028Z,99042.19
2023-04-15T08:51:18.637Z,99045.91
2023-04-15T08:53:47.453Z,99039.00
2023-04-15T08:56:18.730Z,99045.09
2023-04-15T08:58:46.850Z,99041.19
2023-04-15T09:01:15.109Z,99046.72
2023-04-15T09:03:44.209Z,99041.94
2023-04-15T09:06:12.278Z,99047.81
2023-04-15T09:08:40.318Z,99040.69
2023-04-15T09:11:08.393Z,99036.50
2023-04-15T09:13:36.586Z,99044.22
2023-04-15T09:16:05.998Z,99040.81
2023-04-15T09:18:35.634Z,99035.44
2023-04-15T09:21:08.861Z,99041.00
2023-04-15T09:23:40.879Z,99045.94
2023-04-15T09:26:10.098Z,99047.44
2023-04-15T09:28:42.430Z,99052.44
2023-04-15T09:31:11.215Z,99051.53
2023-04-15T09:33:58.711Z,99056.00
2023-04-15T09:36:29.914Z,99055.91
2023-04-15T09:38:58.895Z,99059.94
2023-04-15T09:41:27.356Z,99054.00
2023-04-15T09:43:55.380Z,99052.72
2023-04-15T09:46:44.246Z,99057.19
2023-04-15T09:49:12.945Z,99058.91
2023-04-15T09:51:42.217Z,99066.91
2023-04-15T09:54:12.715Z,99070.94
2023-04-15T09:56:43.669Z,99057.97
2023-04-15T09:59:12.039Z,99058.72
2023-04-15T10:01:41.134Z,99065.22
2023-04-15T10:04:09.231Z,99070.66
2023-04-15T10:06:37.703Z,99075.84
2023-04-15T10:09:06.577Z,99072.03
2023-04-15T10:11:35.213Z,99070.53
2023-04-15T10:14:04.237Z,99067.56
2023-04-15T10:16:33.368Z,99082.66
2023-04-15T10:19:02.204Z,99078.19
2023-04-15T10:21:30.752Z,99089.16
2023-04-15T10:23:58.657Z,99089.94
2023-04-15T10:26:26.699Z,99081.91
2023-04-15T10:28:54.589Z,99093.50
2023-04-15T10:31:23.139Z,99101.63
2023-04-15T10:33:51.447Z,99091.31
2023-04-15T10:36:20.100Z,99095.63
2023-04-15T10:38:48.054Z,99098.13
2023-04-15T10:41:34.593Z,99102.25
2023-04-15T10:44:04.979Z,99100.09
2023-04-15T10:46:44.300Z,99115.16
2023-04-15T10:49:14.463Z,99106.53
2023-04-15T10:51:49.298Z,99114.03
2023-04-15T10:54:31.423Z,99117.47
2023-04-15T10:57:02.665Z,99117.81
2023-04-15T10:59:31.228Z,99121.31
2023-04-15T11:02:04.490Z,99116.50
2023-04-15T11:04:51.429Z,99127.09
2023-04-15T11:07:47.194Z,99131.72
2023-04-15T11:10:17.730Z,99116.31
2023-04-15T11:12:46.559Z,99131.09
2023-04-15T11:15:31.010Z,99136.25
2023-04-15T11:18:09.428Z,99114.06
2023-04-15T11:20:38.372Z,99118.75
2023-04-15T11:23:13.802Z,99124.97
2023-04-15T11:25:43.643Z,99135.75
2023-04-15T11:28:13.258Z,99127.63
2023-04-15T11:30:42.831Z,99127.44
2023-04-15T11:33:14.840Z,99142.09
2023-04-15T11:35:43.385Z,99137.16
2023-04-15T11:38:13.641Z,99145.47
2023-04-15T11:40:45.331Z,99135.81
2023-04-15T11:43:15.955Z,99146.00
2023-04-15T11:45:58.011Z,99126.84
2023-04-15T11:48:28.732Z,99142.00
2023-04-15T11:51:01.854Z,99145.13
2023-04-15T11:53:48.603Z,99158.78
2023-04-15T11:56:24.206Z,99178.84
2023-04-15T11:58:59.497Z,99148.38
2023-04-15T12:01:36.836Z,99164.50
2023-04-15T12:04:14.341Z,99151.41
2023-04-15T12:06:41.570Z,99147.81
2023-04-15T12:09:15.612Z,99169.22
2023-04-15T12:11:55.595Z,99163.09
2023-04-15T12:14:25.952Z,99173.25
2023-04-15T12:16:54.629Z,99168.16
2023-04-15T12:19:41.860Z,99175.69
2023-04-15T12:22:13.802Z,99188.16
2023-04-15T12:24:41.125Z,99178.34
2023-04-15T12:27:17.456Z,99180.13
2023-04-15T12:29:44.450Z,99189.75
2023-04-15T12:32:13.146Z,99187.41
2023-04-15T12:34:44.687Z,99199.38
2023-04-15T12:37:13.181Z,99208.25
2023-04-15T12:39:44.837Z,99208.84
2023-04-15T12:42:12.592Z,99202.69
2023-04-15T12:44:40.052Z,99205.97
2023-04-15T12:47:07.660Z,99202.94
2023-04-15T12:49:34.680Z,99209.09
2023-04-15T12:52:02.451Z,99237.34
2023-04-15T12:54:30.156Z,99208.56
2023-04-15T12:56:57.613Z,99214.94
2023-04-15T12:59:25.630Z,99220.84
2023-04-15T13:01:53.440Z,99217.22
2023-04-15T13:04:20.788Z,99222.59
2023-04-15T13:06:47.963Z,99224.19
2023-04-15T13:09:15.528Z,99229.38
2023-04-15T13:11:42.516Z,99229.66
2023-04-15T13:14:16.075Z,99225.41
2023-04-15T13:16:46.033Z,99240.97
2023-04-15T13:19:15.992Z,99222.59
2023-04-15T13:21:42.965Z,99228.22
2023-04-15T13:24:09.919Z,99233.06
2023-04-15T13:26:36.711Z,99229.13
2023-04-15T13:29:07.077Z,99238.53
2023-04-15T13:31:34.138Z,99231.91
2023-04-15T13:34:07.052Z,99250.91
2023-04-15T13:36:33.959Z,99249.00
2023-04-15T13:39:00.905Z,99252.50
2023-04-15T13:41:27.576Z,99275.88
2023-04-15T13:43:54.497Z,99263.44
2023-04-15T13:46:21.422Z,99257.91
2023-04-15T13:48:48.143Z,99275.50
2023-04-15T13:51:15.473Z,99272.66
2023-04-15T13:53:42.303Z,99269.13
2023-04-15T13:56:10.268Z,99263.53
2023-04-15T13:58:37.643Z,99265.06
2023-04-15T14:01:06.089Z,99257.59
2023-04-15T14:03:34.378Z,99280.81
2023-04-15T14:06:01.453Z,99275.97
2023-04-15T14:08:28.163Z,99293.41
2023-04-15T14:10:54.859Z,99291.31
2023-04-15T14:13:21.833Z,99299.09
2023-04-15T14:15:48.624Z,99303.91
2023-04-15T14:18:15.347Z,99303.06
2023-04-15T14:20:42.181Z,99318.47
2023-04-15T14:23:09.213Z,99308.16
2023-04-15T14:25:36.125Z,99309.16
2023-04-15T14:28:03.497Z,99322.56
2023-04-15T14:30:30.673Z,99326.53
2023-04-15T14:32:57.615Z,99325.28
2023-04-15T14:35:26.495Z,99328.09
2023-04-15T14:37:54.009Z,99329.38
2023-04-15T14:40:20.790Z,99347.06
2023-04-15T14:42:47.557Z,99338.31
2023-04-15T14:45:14.364Z,99345.53
2023-04-15T14:47:41.185Z,99358.25
2023-04-15T14:50:08.382Z,99364.66
2023-04-15T14:52:38.796Z,99367.59
2023-04-15T14:55:10.314Z,99374.31
2023-04-15T14:57:39.861Z,99382.44
2023-04-15T15:00:07.856Z,99380.50
2023-04-15T15:05:04.870Z,99388.59
2023-04-15T15:07:31.709Z,99397.03
2023-04-15T15:09:58.550Z,99391.72
2023-04-15T15:12:25.521Z,99404.31
2023-04-15T15:14:52.620Z,99394.50
2023-04-15T15:17:19.336Z,99409.50
2023-04-15T15:19:46.143Z,99399.28
2023-04-15T15:22:12.878Z,99404.44
2023-04-15T15:24:39.578Z,99405.41
2023-04-15T15:27:06.376Z,99410.03
2023-04-15T15:29:33.023Z,99405.94
2023-04-15T15:31:59.771Z,99421.06
2023-04-15T15:34:26.608Z,99427.53
2023-04-15T15:36:55.125Z,99432.53
2023-04-15T15:39:23.085Z,99428.25
2023-04-15T15:41:50.532Z,99438.16
2023-04-15T15:44:17.441Z,99436.06
2023-04-15T15:46:44.292Z,99448.75
2023-04-15T15:49:11.280Z,99441.41
2023-04-15T15:51:38.031Z,99450.75
2023-04-15T15:54:04.768Z,99452.84
2023-04-15T15:56:31.535Z,99451.84
2023-04-15T15:58:58.646Z,99461.19
2023-04-15T16:01:26.705Z,99459.81
2023-04-15T16:03:54.031Z,99464.28
2023-04-15T16:06:21.031Z,99470.69
2023-04-15T16:08:47.884Z,99472.81
2023-04-15T16:11:14.857Z,99479.09
2023-04-15T16:13:41.626Z,99469.59
2023-04-15T16:16:08.531Z,99486.50
2023-04-15T16:18:35.514Z,99480.75
2023-04-15T16:21:02.259Z,99484.25
2023-04-15T16:23:29.356Z,99491.66
2023-04-15T16:25:56.256Z,99489.69
2023-04-15T16:28:26.938Z,99502.69
2023-04-15T16:30:55.052Z,99499.75
2023-04-15T16:33:21.753Z,99487.91
2023-04-15T16:35:48.485Z,99501.41
2023-04-15T16:38:15.647Z,99495.16
2023-04-15T16:40:42.526Z,99502.13
2023-04-15T16:43:11.204Z,99502.69
2023-04-15T16:45:38.576Z,99506.75
2023-04-15T16:48:05.748Z,99504.94
2023-04-15T16:50:32.535Z,99509.13
2023-04-15T16:52:59.337Z,99513.47
2023-04-15T16:55:26.220Z,99519.72
2023-04-15T16:58:02.909Z,99513.47
2023-04-15T17:00:31.671Z,99512.22
2023-04-15T17:02:59.495Z,99513.06
2023-04-15T17:05:30.524Z,99519.47
2023-04-15T17:07:57.508Z,99519.06
2023-04-15T17:10:24.341Z,99533.69
2023-04-15T17:12:52.221Z,99530.34
2023-04-15T17:15:20.625Z,99533.16
2023-04-15T17:17:52.523Z,99532.28
2023-04-15T17:20:19.613Z,99533.81
2023-04-15T17:22:46.574Z,99534.28
2023-04-15T17:25:14.720Z,99538.47
2023-04-15T17:27:46.125Z,99552.69
2023-04-15T17:30:17.451Z,99553.97
2023-04-15T17:33:57.504Z,99551.31
2023-04-15T17:36:11.199Z,99556.63
2023-04-15T17:38:57.834Z,99559.53
2023-04-15T17:41:44.464Z,99562.91
2023-04-15T17:44:31.157Z,99566.66
2023-04-15T17:47:17.914Z,99567.78
2023-04-15T17:50:04.757Z,99564.00
2023-04-15T17:52:51.510Z,99571.44
2023-04-15T17:55:39.247Z,99574.59
2023-04-15T17:58:27.429Z,99585.66
2023-04-15T18:01:14.054Z,99581.31
2023-04-15T18:04:00.926Z,99593.63
2023-04-15T18:06:47.607Z,99588.31
2023-04-15T18:09:34.292Z,99596.53
2023-04-15T18:12:24.017Z,99595.97
2023-04-15T18:15:11.423Z,99608.94
2023-04-15T18:18:01.054Z,99613.84
2023-04-15T18:20:28.098Z,99613.31
2023-04-15T18:22:55.712Z,99624.16
2023-04-15T18:25:22.461Z,99628.66
2023-04-15T18:27:49.433Z,99625.16
2023-04-15T18:30:16.173Z,99629.06
2023-04-15T18:32:43.654Z,99638.00
2023-04-15T18:35:10.598Z,99631.69
2023-04-15T18:37:38.988Z,99635.06
2023-04-15T18:40:07.585Z,99639.97
2023-04-15T18:42:40.261Z,99641.06
2023-04-15T18:45:18.277Z,99638.13
2023-04-15T18:47:45.283Z,99648.19
2023-04-15T18:50:12.467Z,99650.16
2023-04-15T18:52:39.362Z,99658.81
2023-04-15T18:55:06.560Z,99669.56
2023-04-15T18:57:35.261Z,99660.63
2023-04-15T19:00:02.882Z,99665.22
2023-04-15T19:02:31.144Z,99668.31
2023-04-15T19:04:58.075Z,99682.41
2023-04-15T19:07:24.962Z,99683.41
2023-04-15T19:09:52.169Z,99680.56
2023-04-15T19:12:19.174Z,99685.75
2023-04-15T19:14:46.061Z,99692.59
2023-04-15T19:17:12.764Z,99701.00
2023-04-15T19:19:39.695Z,99705.47
2023-04-15T19:22:07.283Z,99694.69
2023-04-15T19:24:34.130Z,99697.34
2023-04-15T19:27:01.645Z,99706.00
2023-04-15T19:29:28.825Z,99707.97
2023-04-15T19:31:56.091Z,99705.47
2023-04-15T19:34:23.109Z,99708.94
2023-04-15T19:36:50.127Z,99708.25
2023-04-15T19:39:17.561Z,99707.97
2023-04-15T19:41:44.873Z,99713.69
2023-04-15T19:44:14.451Z,99708.63
2023-04-15T19:46:43.637Z,99712.16
2023-04-15T19:49:10.850Z,99715.75
2023-04-15T19:51:37.678Z,99715.38
2023-04-15T19:54:04.541Z,99714.06
2023-04-15T19:56:34.517Z,99716.16
2023-04-15T19:59:02.273Z,99719.09
2023-04-15T20:01:29.435Z,99719.41
2023-04-15T20:03:56.486Z,99728.19
2023-04-15T20:06:23.954Z,99725.41
2023-04-15T20:08:51.841Z,99732.50
2023-04-15T20:11:18.893Z,99726.09
2023-04-15T20:13:45.723Z,99722.34
2023-04-15T20:16:12.997Z,99722.41
2023-04-15T20:18:39.956Z,99727.06
2023-04-15T20:21:06.841Z,99724.84
2023-04-15T20:23:35.956Z,99721.06
2023-04-15T20:26:05.164Z,99720.63
2023-04-15T20:28:32.132Z,99722.47
2023-04-15T20:31:00.796Z,99721.75
2023-04-15T20:33:27.710Z,99736.03
2023-04-15T20:35:54.732Z,99725.38
2023-04-15T20:38:21.865Z,99730.03
2023-04-15T20:40:48.687Z,99725.66
2023-04-15T20:43:18.384Z,99731.41
2023-04-15T20:45:45.514Z,99724.00
2023-04-15T20:48:12.538Z,99732.78
2023-04-15T20:50:39.393Z,99742.00
2023-04-15T20:53:06.230Z,99730.53
2023-04-15T20:55:32.984Z,99738.09
2023-04-15T20:57:59.686Z,99746.22
2023-04-15T21:00:26.515Z,99750.41
2023-04-15T21:02:53.471Z,99762.13
2023-04-15T21:05:20.449Z,99758.88
2023-04-15T21:07:47.273Z,99751.31
2023-04-15T21:10:14.001Z,99765.44
2023-04-15T21:12:41.134Z,99763.63
2023-04-15T21:15:08.709Z,99761.06
2023-04-15T21:17:35.749Z,99758.44
2023-04-15T21:20:02.559Z,99765.56
2023-04-15T21:22:29.523Z,99777.72
2023-04-15T21:24:56.204Z,99775.19
2023-04-15T21:27:22.983Z,99778.72
2023-04-15T21:29:49.722Z,99780.81
2023-04-15T21:32:16.568Z,99778.28
2023-04-15T21:34:43.412Z,99774.50
2023-04-15T21:37:10.295Z,99785.13
2023-04-15T21:39:37.015Z,99791.53
2023-04-15T21:42:03.773Z,99780.06
2023-04-15T21:44:30.861Z,99790.00
2023-04-15T21:46:57.626Z,99789.31
2023-04-15T21:49:25.538Z,99793.53
2023-04-15T21:51:52.352Z,99797.72
2023-04-15T21:54:19.233Z,99791.44
2023-04-15T21:56:47.621Z,99805.34
2023-04-15T21:59:14.380Z,99805.53
2023-04-15T22:01:41.108Z,99804.81
2023-04-15T22:04:08.154Z,99805.53
2023-04-15T22:06:34.937Z,99796.03
2023-04-15T22:09:01.639Z,99806.34
2023-04-15T22:11:30.249Z,99812.25
2023-04-15T22:13:57.913Z,99815.75
2023-04-15T22:16:27.811Z,99810.44
2023-04-15T22:18:55.319Z,99815.03
2023-04-15T22:21:22.262Z,99826.34
2023-04-15T22:23:49.442Z,99830.44
2023-04-15T22:26:16.299Z,99827.19
2023-04-15T22:28:43.583Z,99819.81
2023-04-15T22:31:10.457Z,99822.72
2023-04-15T22:33:37.350Z,99824.28
2023-04-15T22:36:04.028Z,99831.66
2023-04-15T22:38:30.905Z,99844.94
2023-04-15T22:40:58.168Z,99835.31
2023-04-15T22:43:25.875Z,99844.94
2023-04-15T22:45:54.696Z,99845.75
2023-04-15T22:48:21.510Z,99841.44
2023-04-15T22:50:48.550Z,99849.00
2023-04-15T22:53:16.633Z,99856.09
2023-04-15T22:55:47.277Z,99853.44
2023-04-15T22:58:15.064Z,99855.28
2023-04-15T23:00:41.872Z,99845.50
2023-04-15T23:03:08.746Z,99845.50
2023-04-15T23:05:35.755Z,99855.72
2023-04-15T23:08:03.268Z,99852.34
2023-04-15T23:10:30.041Z,99858.63
2023-04-15T23:12:56.807Z,99860.31
2023-04-15T23:15:23.655Z,99858.91
2023-04-15T23:17:50.482Z,99862.84
2023-04-15T23:20:17.269Z,99867.00
2023-04-15T23:22:44.131Z,99867.59
2023-04-15T23:25:10.886Z,99866.72
2023-04-15T23:27:37.703Z,99871.91
2023-04-15T23:30:04.982Z,99865.06
2023-04-15T23:32:31.726Z,99869.38
2023-04-15T23:34:58.442Z,99866.16
2023-04-15T23:37:25.177Z,99879.97
2023-04-15T23:39:52.448Z,99872.88
2023-04-15T23:42:19.269Z,99880.25
2023-04-15T23:44:46.064Z,99877.47
2023-04-15T23:47:12.751Z,99879.41
2023-04-15T23:49:40.907Z,99878.31
2023-04-15T23:52:07.932Z,99874.00
2023-04-15T23:54:34.883Z,99872.28
2023-04-15T23:57:01.787Z,99879.41
2023-04-15T23:59:28.556Z,99875.22
